sensor_id;sensor_type;location;lat;lon;timestamp;temperature;humidity
46926;DHT22;32667;48.248;-1.700;2023-03-01T00:01:12;2.70;73.40
46926;DHT22;32667;48.248;-1.700;2023-03-01T00:03:38;2.60;73.50
46926;DHT22;32667;48.248;-1.700;2023-03-01T00:06:04;2.60;73.60
46926;DHT22;32667;48.248;-1.700;2023-03-01T00:08:30;2.50;73.60
46926;DHT22;32667;48.248;-1.700;2023-03-01T00:13:31;2.50;73.70
46926;DHT22;32667;48.248;-1.700;2023-03-01T00:15:56;2.50;73.70
46926;DHT22;32667;48.248;-1.700;2023-03-01T00:18:22;2.50;73.70
46926;DHT22;32667;48.248;-1.700;2023-03-01T00:20:51;2.40;73.70
46926;DHT22;32667;48.248;-1.700;2023-03-01T00:23:19;2.40;73.70
46926;DHT22;32667;48.248;-1.700;2023-03-01T00:25:48;2.40;73.70
46926;DHT22;32667;48.248;-1.700;2023-03-01T00:28:14;2.30;73.70
46926;DHT22;32667;48.248;-1.700;2023-03-01T00:30:40;2.30;73.80
46926;DHT22;32667;48.248;-1.700;2023-03-01T00:33:05;2.30;73.80
46926;DHT22;32667;48.248;-1.700;2023-03-01T00:35:34;2.20;73.80
46926;DHT22;32667;48.248;-1.700;2023-03-01T00:37:59;2.20;73.80
46926;DHT22;32667;48.248;-1.700;2023-03-01T00:40:28;2.20;73.80
46926;DHT22;32667;48.248;-1.700;2023-03-01T00:42:54;2.20;73.80
46926;DHT22;32667;48.248;-1.700;2023-03-01T00:45:20;2.20;73.80
46926;DHT22;32667;48.248;-1.700;2023-03-01T00:47:45;2.10;73.70
46926;DHT22;32667;48.248;-1.700;2023-03-01T00:50:14;2.10;73.80
46926;DHT22;32667;48.248;-1.700;2023-03-01T00:52:39;2.10;73.80
46926;DHT22;32667;48.248;-1.700;2023-03-01T00:55:05;2.10;74.40
46926;DHT22;32667;48.248;-1.700;2023-03-01T00:57:31;2.10;73.80
46926;DHT22;32667;48.248;-1.700;2023-03-01T00:59:59;2.10;73.80
46926;DHT22;32667;48.248;-1.700;2023-03-01T01:02:27;2.10;73.80
46926;DHT22;32667;48.248;-1.700;2023-03-01T01:04:52;2.10;73.80
46926;DHT22;32667;48.248;-1.700;2023-03-01T01:07:18;2.10;73.70
46926;DHT22;32667;48.248;-1.700;2023-03-01T01:09:45;2.00;73.70
46926;DHT22;32667;48.248;-1.700;2023-03-01T01:12:11;2.00;73.70
46926;DHT22;32667;48.248;-1.700;2023-03-01T01:14:37;2.00;73.80
46926;DHT22;32667;48.248;-1.700;2023-03-01T01:17:02;2.00;73.70
46926;DHT22;32667;48.248;-1.700;2023-03-01T01:19:28;2.00;73.60
46926;DHT22;32667;48.248;-1.700;2023-03-01T01:21:58;2.00;73.60
46926;DHT22;32667;48.248;-1.700;2023-03-01T01:24:28;1.90;73.60
46926;DHT22;32667;48.248;-1.700;2023-03-01T01:27:01;2.00;73.80
46926;DHT22;32667;48.248;-1.700;2023-03-01T01:29:27;2.00;73.70
46926;DHT22;32667;48.248;-1.700;2023-03-01T01:31:57;2.00;73.70
46926;DHT22;32667;48.248;-1.700;2023-03-01T01:34:28;2.00;73.70
46926;DHT22;32667;48.248;-1.700;2023-03-01T01:36:53;2.00;73.60
46926;DHT22;32667;48.248;-1.700;2023-03-01T01:39:20;2.00;73.60
46926;DHT22;32667;48.248;-1.700;2023-03-01T01:41:47;2.00;73.60
46926;DHT22;32667;48.248;-1.700;2023-03-01T01:46:43;1.90;73.50
46926;DHT22;32667;48.248;-1.700;2023-03-01T01:49:25;1.90;73.50
46926;DHT22;32667;48.248;-1.700;2023-03-01T01:51:57;1.90;73.60
46926;DHT22;32667;48.248;-1.700;2023-03-01T01:54:26;1.90;73.50
46926;DHT22;32667;48.248;-1.700;2023-03-01T01:56:55;1.90;73.50
46926;DHT22;32667;48.248;-1.700;2023-03-01T01:59:22;1.90;73.60
46926;DHT22;32667;48.248;-1.700;2023-03-01T02:01:50;1.90;73.50
46926;DHT22;32667;48.248;-1.700;2023-03-01T02:04:16;1.90;73.60
46926;DHT22;32667;48.248;-1.700;2023-03-01T02:06:46;1.90;73.50
46926;DHT22;32667;48.248;-1.700;2023-03-01T02:09:18;1.90;73.50
46926;DHT22;32667;48.248;-1.700;2023-03-01T02:11:45;1.90;73.50
46926;DHT22;32667;48.248;-1.700;2023-03-01T02:14:12;1.90;73.50
46926;DHT22;32667;48.248;-1.700;2023-03-01T02:16:40;1.90;73.60
46926;DHT22;32667;48.248;-1.700;2023-03-01T02:19:06;1.80;73.50
46926;DHT22;32667;48.248;-1.700;2023-03-01T02:24:24;1.80;73.50
46926;DHT22;32667;48.248;-1.700;2023-03-01T02:26:54;1.80;73.50
46926;DHT22;32667;48.248;-1.700;2023-03-01T02:29:21;1.80;73.50
46926;DHT22;32667;48.248;-1.700;2023-03-01T02:31:47;1.70;73.50
46926;DHT22;32667;48.248;-1.700;2023-03-01T02:34:15;1.80;73.50
46926;DHT22;32667;48.248;-1.700;2023-03-01T02:36:45;1.70;73.50
46926;DHT22;32667;48.248;-1.700;2023-03-01T02:39:13;1.70;73.50
46926;DHT22;32667;48.248;-1.700;2023-03-01T02:41:42;1.70;73.50
46926;DHT22;32667;48.248;-1.700;2023-03-01T02:44:11;1.70;73.50
46926;DHT22;32667;48.248;-1.700;2023-03-01T02:46:49;1.60;73.50
46926;DHT22;32667;48.248;-1.700;2023-03-01T02:49:16;1.70;73.60
46926;DHT22;32667;48.248;-1.700;2023-03-01T02:56:45;1.60;73.60
46926;DHT22;32667;48.248;-1.700;2023-03-01T02:59:14;1.60;73.70
46926;DHT22;32667;48.248;-1.700;2023-03-01T03:01:41;1.50;73.60
46926;DHT22;32667;48.248;-1.700;2023-03-01T03:04:08;1.50;73.70
46926;DHT22;32667;48.248;-1.700;2023-03-01T03:06:36;1.40;73.70
46926;DHT22;32667;48.248;-1.700;2023-03-01T03:09:02;1.40;73.80
46926;DHT22;32667;48.248;-1.700;2023-03-01T03:11:28;1.40;73.80
46926;DHT22;32667;48.248;-1.700;2023-03-01T03:13:54;1.30;73.90
46926;DHT22;32667;48.248;-1.700;2023-03-01T03:16:20;1.30;73.90
46926;DHT22;32667;48.248;-1.700;2023-03-01T03:18:48;1.30;74.00
46926;DHT22;32667;48.248;-1.700;2023-03-01T03:21:14;1.30;74.00
46926;DHT22;32667;48.248;-1.700;2023-03-01T03:23:42;1.30;73.90
46926;DHT22;32667;48.248;-1.700;2023-03-01T03:26:10;1.30;74.00
46926;DHT22;32667;48.248;-1.700;2023-03-01T03:28:38;1.30;73.90
46926;DHT22;32667;48.248;-1.700;2023-03-01T03:31:07;1.30;73.90
46926;DHT22;32667;48.248;-1.700;2023-03-01T03:33:33;1.30;73.90
46926;DHT22;32667;48.248;-1.700;2023-03-01T03:36:01;1.30;73.80
46926;DHT22;32667;48.248;-1.700;2023-03-01T03:38:29;1.30;73.70
46926;DHT22;32667;48.248;-1.700;2023-03-01T03:41:02;1.30;73.80
46926;DHT22;32667;48.248;-1.700;2023-03-01T03:43:38;1.30;73.80
46926;DHT22;32667;48.248;-1.700;2023-03-01T03:46:04;1.30;73.80
46926;DHT22;32667;48.248;-1.700;2023-03-01T03:48:36;1.30;73.80
46926;DHT22;32667;48.248;-1.700;2023-03-01T03:51:02;1.30;73.80
46926;DHT22;32667;48.248;-1.700;2023-03-01T03:53:30;1.30;74.40
46926;DHT22;32667;48.248;-1.700;2023-03-01T03:55:58;1.30;73.80
46926;DHT22;32667;48.248;-1.700;2023-03-01T03:58:29;1.30;73.80
46926;DHT22;32667;48.248;-1.700;2023-03-01T04:00:55;1.30;73.80
46926;DHT22;32667;48.248;-1.700;2023-03-01T04:03:24;1.30;73.80
46926;DHT22;32667;48.248;-1.700;2023-03-01T04:05:52;1.30;73.70
46926;DHT22;32667;48.248;-1.700;2023-03-01T04:08:19;1.30;73.70
46926;DHT22;32667;48.248;-1.700;2023-03-01T04:10:58;1.30;73.70
46926;DHT22;32667;48.248;-1.700;2023-03-01T04:13:27;1.30;73.70
46926;DHT22;32667;48.248;-1.700;2023-03-01T04:15:55;1.30;73.70
46926;DHT22;32667;48.248;-1.700;2023-03-01T04:18:22;1.30;73.70
46926;DHT22;32667;48.248;-1.700;2023-03-01T04:20:48;1.20;73.70
46926;DHT22;32667;48.248;-1.700;2023-03-01T04:23:15;1.20;74.00
46926;DHT22;32667;48.248;-1.700;2023-03-01T04:28:07;1.20;73.70
46926;DHT22;32667;48.248;-1.700;2023-03-01T04:30:32;1.20;73.70
46926;DHT22;32667;48.248;-1.700;2023-03-01T04:33:01;1.20;73.80
46926;DHT22;32667;48.248;-1.700;2023-03-01T04:35:30;1.20;73.80
46926;DHT22;32667;48.248;-1.700;2023-03-01T04:37:55;1.10;73.70
46926;DHT22;32667;48.248;-1.700;2023-03-01T04:40:21;1.10;73.70
46926;DHT22;32667;48.248;-1.700;2023-03-01T04:42:47;1.10;73.80
46926;DHT22;32667;48.248;-1.700;2023-03-01T04:45:15;1.10;73.70
46926;DHT22;32667;48.248;-1.700;2023-03-01T04:47:43;1.10;73.80
46926;DHT22;32667;48.248;-1.700;2023-03-01T04:50:15;1.00;73.80
46926;DHT22;32667;48.248;-1.700;2023-03-01T04:52:41;1.00;73.80
46926;DHT22;32667;48.248;-1.700;2023-03-01T04:55:09;1.00;73.80
46926;DHT22;32667;48.248;-1.700;2023-03-01T04:57:37;1.00;73.80
46926;DHT22;32667;48.248;-1.700;2023-03-01T05:00:06;1.00;73.80
46926;DHT22;32667;48.248;-1.700;2023-03-01T05:02:54;1.00;73.80
46926;DHT22;32667;48.248;-1.700;2023-03-01T05:05:30;0.90;73.80
46926;DHT22;32667;48.248;-1.700;2023-03-01T05:07:57;1.00;74.40
46926;DHT22;32667;48.248;-1.700;2023-03-01T05:10:24;1.00;73.80
46926;DHT22;32667;48.248;-1.700;2023-03-01T05:12:54;0.90;73.80
46926;DHT22;32667;48.248;-1.700;2023-03-01T05:15:20;0.90;73.80
46926;DHT22;32667;48.248;-1.700;2023-03-01T05:17:49;0.90;73.80
46926;DHT22;32667;48.248;-1.700;2023-03-01T05:20:15;0.90;73.80
46926;DHT22;32667;48.248;-1.700;2023-03-01T05:22:40;0.90;73.70
46926;DHT22;32667;48.248;-1.700;2023-03-01T05:25:13;0.90;73.70
46926;DHT22;32667;48.248;-1.700;2023-03-01T05:27:46;1.00;73.80
46926;DHT22;32667;48.248;-1.700;2023-03-01T05:30:12;1.00;73.80
46926;DHT22;32667;48.248;-1.700;2023-03-01T05:32:45;1.00;73.70
46926;DHT22;32667;48.248;-1.700;2023-03-01T05:35:15;1.00;73.70
46926;DHT22;32667;48.248;-1.700;2023-03-01T05:37:45;1.00;73.70
46926;DHT22;32667;48.248;-1.700;2023-03-01T05:40:18;1.00;73.70
46926;DHT22;32667;48.248;-1.700;2023-03-01T05:42:45;1.00;73.60
46926;DHT22;32667;48.248;-1.700;2023-03-01T05:45:11;1.00;73.60
46926;DHT22;32667;48.248;-1.700;2023-03-01T05:47:38;1.00;73.60
46926;DHT22;32667;48.248;-1.700;2023-03-01T05:50:11;1.00;73.60
46926;DHT22;32667;48.248;-1.700;2023-03-01T05:52:37;1.00;73.60
46926;DHT22;32667;48.248;-1.700;2023-03-01T05:55:03;1.10;73.60
46926;DHT22;32667;48.248;-1.700;2023-03-01T05:57:29;1.10;73.60
46926;DHT22;32667;48.248;-1.700;2023-03-01T05:59:55;1.10;73.60
46926;DHT22;32667;48.248;-1.700;2023-03-01T06:02:20;1.00;73.60
46926;DHT22;32667;48.248;-1.700;2023-03-01T06:04:46;1.10;73.60
46926;DHT22;32667;48.248;-1.700;2023-03-01T06:07:11;1.10;73.60
46926;DHT22;32667;48.248;-1.700;2023-03-01T06:09:37;1.10;73.60
46926;DHT22;32667;48.248;-1.700;2023-03-01T06:12:05;1.10;73.70
46926;DHT22;32667;48.248;-1.700;2023-03-01T06:14:30;1.10;73.60
46926;DHT22;32667;48.248;-1.700;2023-03-01T06:16:56;1.10;73.70
46926;DHT22;32667;48.248;-1.700;2023-03-01T06:19:24;1.10;73.60
46926;DHT22;32667;48.248;-1.700;2023-03-01T06:21:50;1.10;73.60
46926;DHT22;32667;48.248;-1.700;2023-03-01T06:24:18;1.10;74.20
46926;DHT22;32667;48.248;-1.700;2023-03-01T06:26:46;1.10;73.60
46926;DHT22;32667;48.248;-1.700;2023-03-01T06:29:14;1.10;73.60
46926;DHT22;32667;48.248;-1.700;2023-03-01T06:31:42;1.10;73.60
46926;DHT22;32667;48.248;-1.700;2023-03-01T06:34:08;1.10;73.50
46926;DHT22;32667;48.248;-1.700;2023-03-01T06:36:38;1.10;73.50
46926;DHT22;32667;48.248;-1.700;2023-03-01T06:39:06;1.10;73.60
46926;DHT22;32667;48.248;-1.700;2023-03-01T06:41:32;1.00;73.50
46926;DHT22;32667;48.248;-1.700;2023-03-01T06:44:00;1.00;73.50
46926;DHT22;32667;48.248;-1.700;2023-03-01T06:46:26;1.00;73.60
46926;DHT22;32667;48.248;-1.700;2023-03-01T06:48:51;1.00;73.60
46926;DHT22;32667;48.248;-1.700;2023-03-01T06:51:17;1.00;73.60
46926;DHT22;32667;48.248;-1.700;2023-03-01T06:53:42;1.00;73.60
46926;DHT22;32667;48.248;-1.700;2023-03-01T06:56:10;1.00;73.60
46926;DHT22;32667;48.248;-1.700;2023-03-01T06:58:36;1.00;73.60
46926;DHT22;32667;48.248;-1.700;2023-03-01T07:01:05;1.00;73.60
46926;DHT22;32667;48.248;-1.700;2023-03-01T07:03:35;0.90;73.60
46926;DHT22;32667;48.248;-1.700;2023-03-01T07:06:08;0.90;73.60
46926;DHT22;32667;48.248;-1.700;2023-03-01T07:08:34;0.90;73.60
46926;DHT22;32667;48.248;-1.700;2023-03-01T07:11:00;0.90;73.60
46926;DHT22;32667;48.248;-1.700;2023-03-01T07:13:30;0.90;73.60
46926;DHT22;32667;48.248;-1.700;2023-03-01T07:16:00;0.90;73.70
46926;DHT22;32667;48.248;-1.700;2023-03-01T07:18:26;0.90;73.60
46926;DHT22;32667;48.248;-1.700;2023-03-01T07:20:56;0.90;73.60
46926;DHT22;32667;48.248;-1.700;2023-03-01T07:23:25;0.90;73.70
46926;DHT22;32667;48.248;-1.700;2023-03-01T07:25:54;0.90;73.70
46926;DHT22;32667;48.248;-1.700;2023-03-01T07:28:22;0.90;73.60
46926;DHT22;32667;48.248;-1.700;2023-03-01T07:30:50;0.90;73.60
46926;DHT22;32667;48.248;-1.700;2023-03-01T07:33:16;0.90;73.60
46926;DHT22;32667;48.248;-1.700;2023-03-01T07:35:44;1.00;73.60
46926;DHT22;32667;48.248;-1.700;2023-03-01T07:38:09;1.00;73.60
46926;DHT22;32667;48.248;-1.700;2023-03-01T07:40:37;1.00;73.60
46926;DHT22;32667;48.248;-1.700;2023-03-01T07:43:05;1.00;73.50
46926;DHT22;32667;48.248;-1.700;2023-03-01T07:45:31;1.10;73.50
46926;DHT22;32667;48.248;-1.700;2023-03-01T07:47:59;1.10;73.50
46926;DHT22;32667;48.248;-1.700;2023-03-01T07:50:27;1.20;73.40
46926;DHT22;32667;48.248;-1.700;2023-03-01T07:52:52;1.20;73.30
46926;DHT22;32667;48.248;-1.700;2023-03-01T07:55:18;1.30;73.30
46926;DHT22;32667;48.248;-1.700;2023-03-01T07:57:44;1.30;73.20
46926;DHT22;32667;48.248;-1.700;2023-03-01T08:00:10;1.40;73.10
46926;DHT22;32667;48.248;-1.700;2023-03-01T08:02:36;1.40;73.10
46926;DHT22;32667;48.248;-1.700;2023-03-01T08:05:02;1.50;73.10
46926;DHT22;32667;48.248;-1.700;2023-03-01T08:07:28;1.50;73.00
46926;DHT22;32667;48.248;-1.700;2023-03-01T08:09:53;1.60;72.90
46926;DHT22;32667;48.248;-1.700;2023-03-01T08:12:19;1.70;72.90
46926;DHT22;32667;48.248;-1.700;2023-03-01T08:14:44;1.70;72.80
46926;DHT22;32667;48.248;-1.700;2023-03-01T08:17:12;1.80;72.70
46926;DHT22;32667;48.248;-1.700;2023-03-01T08:19:38;1.80;72.70
46926;DHT22;32667;48.248;-1.700;2023-03-01T08:22:06;1.90;72.60
46926;DHT22;32667;48.248;-1.700;2023-03-01T08:24:34;2.00;72.40
46926;DHT22;32667;48.248;-1.700;2023-03-01T08:27:02;2.10;72.40
46926;DHT22;32667;48.248;-1.700;2023-03-01T08:29:32;2.20;72.40
46926;DHT22;32667;48.248;-1.700;2023-03-01T08:31:58;2.30;72.30
46926;DHT22;32667;48.248;-1.700;2023-03-01T08:34:24;2.30;72.10
46926;DHT22;32667;48.248;-1.700;2023-03-01T08:36:52;2.50;72.10
46926;DHT22;32667;48.248;-1.700;2023-03-01T08:39:18;2.60;72.00
46926;DHT22;32667;48.248;-1.700;2023-03-01T08:41:44;2.60;71.80
46926;DHT22;32667;48.248;-1.700;2023-03-01T08:44:11;2.70;71.80
46926;DHT22;32667;48.248;-1.700;2023-03-01T08:46:38;2.80;71.80
46926;DHT22;32667;48.248;-1.700;2023-03-01T08:49:12;2.90;71.80
46926;DHT22;32667;48.248;-1.700;2023-03-01T08:51:38;3.00;71.70
46926;DHT22;32667;48.248;-1.700;2023-03-01T08:54:04;3.10;71.60
46926;DHT22;32667;48.248;-1.700;2023-03-01T08:56:33;3.10;71.60
46926;DHT22;32667;48.248;-1.700;2023-03-01T08:59:01;3.20;71.50
46926;DHT22;32667;48.248;-1.700;2023-03-01T09:01:31;3.30;71.40
46926;DHT22;32667;48.248;-1.700;2023-03-01T09:03:56;3.30;71.30
46926;DHT22;32667;48.248;-1.700;2023-03-01T09:06:24;3.50;71.40
46926;DHT22;32667;48.248;-1.700;2023-03-01T09:08:52;3.50;71.30
46926;DHT22;32667;48.248;-1.700;2023-03-01T09:11:22;3.60;71.30
46926;DHT22;32667;48.248;-1.700;2023-03-01T09:13:48;3.60;71.20
46926;DHT22;32667;48.248;-1.700;2023-03-01T09:16:19;3.70;71.30
46926;DHT22;32667;48.248;-1.700;2023-03-01T09:18:48;3.80;71.30
46926;DHT22;32667;48.248;-1.700;2023-03-01T09:21:22;3.90;71.20
46926;DHT22;32667;48.248;-1.700;2023-03-01T09:23:58;3.90;71.10
46926;DHT22;32667;48.248;-1.700;2023-03-01T09:26:26;4.00;71.00
46926;DHT22;32667;48.248;-1.700;2023-03-01T09:28:53;4.00;71.00
46926;DHT22;32667;48.248;-1.700;2023-03-01T09:31:20;4.10;71.00
46926;DHT22;32667;48.248;-1.700;2023-03-01T09:33:46;4.20;71.00
46926;DHT22;32667;48.248;-1.700;2023-03-01T09:36:13;4.30;71.00
46926;DHT22;32667;48.248;-1.700;2023-03-01T09:38:39;4.30;70.90
46926;DHT22;32667;48.248;-1.700;2023-03-01T09:44:04;4.50;70.80
46926;DHT22;32667;48.248;-1.700;2023-03-01T09:46:36;4.60;70.70
46926;DHT22;32667;48.248;-1.700;2023-03-01T09:49:17;4.60;70.60
46926;DHT22;32667;48.248;-1.700;2023-03-01T09:51:47;4.60;70.60
46926;DHT22;32667;48.248;-1.700;2023-03-01T09:54:23;4.70;70.60
46926;DHT22;32667;48.248;-1.700;2023-03-01T09:59:26;4.80;70.50
46926;DHT22;32667;48.248;-1.700;2023-03-01T10:04:52;4.90;70.40
46926;DHT22;32667;48.248;-1.700;2023-03-01T10:07:27;4.90;70.40
46926;DHT22;32667;48.248;-1.700;2023-03-01T10:09:53;4.90;70.50
46926;DHT22;32667;48.248;-1.700;2023-03-01T10:12:34;4.90;70.50
46926;DHT22;32667;48.248;-1.700;2023-03-01T10:15:06;5.00;70.50
46926;DHT22;32667;48.248;-1.700;2023-03-01T10:17:42;5.00;70.50
46926;DHT22;32667;48.248;-1.700;2023-03-01T10:20:14;5.00;70.50
46926;DHT22;32667;48.248;-1.700;2023-03-01T10:22:41;5.10;70.50
46926;DHT22;32667;48.248;-1.700;2023-03-01T10:26:01;5.20;70.50
46926;DHT22;32667;48.248;-1.700;2023-03-01T10:28:50;5.20;70.40
46926;DHT22;32667;48.248;-1.700;2023-03-01T10:31:00;5.30;70.30
46926;DHT22;32667;48.248;-1.700;2023-03-01T10:33:35;5.40;70.20
46926;DHT22;32667;48.248;-1.700;2023-03-01T10:36:04;5.50;70.20
46926;DHT22;32667;48.248;-1.700;2023-03-01T10:38:31;5.50;70.00
46926;DHT22;32667;48.248;-1.700;2023-03-01T10:41:05;5.60;70.10
46926;DHT22;32667;48.248;-1.700;2023-03-01T10:43:55;5.60;70.10
46926;DHT22;32667;48.248;-1.700;2023-03-01T10:49:05;5.70;70.00
46926;DHT22;32667;48.248;-1.700;2023-03-01T10:51:34;5.70;70.00
46926;DHT22;32667;48.248;-1.700;2023-03-01T10:54:09;5.70;70.00
46926;DHT22;32667;48.248;-1.700;2023-03-01T10:56:47;5.80;70.10
46926;DHT22;32667;48.248;-1.700;2023-03-01T11:04:36;5.90;70.10
46926;DHT22;32667;48.248;-1.700;2023-03-01T11:07:03;5.90;70.00
46926;DHT22;32667;48.248;-1.700;2023-03-01T11:09:33;6.00;70.00
46926;DHT22;32667;48.248;-1.700;2023-03-01T11:12:03;6.00;70.10
46926;DHT22;32667;48.248;-1.700;2023-03-01T11:14:33;6.00;70.10
46926;DHT22;32667;48.248;-1.700;2023-03-01T11:17:05;6.00;70.10
46926;DHT22;32667;48.248;-1.700;2023-03-01T11:19:31;6.10;70.20
46926;DHT22;32667;48.248;-1.700;2023-03-01T11:27:21;6.30;70.00
46926;DHT22;32667;48.248;-1.700;2023-03-01T11:30:05;6.30;69.90
46926;DHT22;32667;48.248;-1.700;2023-03-01T11:32:34;6.40;69.90
46926;DHT22;32667;48.248;-1.700;2023-03-01T11:35:13;6.50;69.80
46926;DHT22;32667;48.248;-1.700;2023-03-01T11:37:57;6.60;69.70
46926;DHT22;32667;48.248;-1.700;2023-03-01T11:40:29;6.60;69.70
46926;DHT22;32667;48.248;-1.700;2023-03-01T11:43:01;6.70;69.70
46926;DHT22;32667;48.248;-1.700;2023-03-01T11:50:59;6.90;69.50
46926;DHT22;32667;48.248;-1.700;2023-03-01T11:59:03;7.10;69.30
46926;DHT22;32667;48.248;-1.700;2023-03-01T12:06:35;7.30;69.30
46926;DHT22;32667;48.248;-1.700;2023-03-01T12:09:13;7.30;69.20
46926;DHT22;32667;48.248;-1.700;2023-03-01T12:22:32;7.40;69.30
46926;DHT22;32667;48.248;-1.700;2023-03-01T12:25:13;7.50;69.50
46926;DHT22;32667;48.248;-1.700;2023-03-01T12:46:14;7.70;69.90
46926;DHT22;32667;48.248;-1.700;2023-03-01T12:48:42;7.70;69.30
46926;DHT22;32667;48.248;-1.700;2023-03-01T12:51:14;7.80;69.40
46926;DHT22;32667;48.248;-1.700;2023-03-01T12:53:41;7.80;69.30
46926;DHT22;32667;48.248;-1.700;2023-03-01T12:56:10;7.90;69.20
46926;DHT22;32667;48.248;-1.700;2023-03-01T13:03:56;8.00;69.10
46926;DHT22;32667;48.248;-1.700;2023-03-01T13:06:29;8.10;69.20
46926;DHT22;32667;48.248;-1.700;2023-03-01T13:09:05;8.10;69.10
46926;DHT22;32667;48.248;-1.700;2023-03-01T13:11:40;8.20;69.10
46926;DHT22;32667;48.248;-1.700;2023-03-01T13:16:50;8.30;69.00
46926;DHT22;32667;48.248;-1.700;2023-03-01T13:19:17;8.40;68.80
46926;DHT22;32667;48.248;-1.700;2023-03-01T13:21:45;8.50;68.80
46926;DHT22;32667;48.248;-1.700;2023-03-01T13:24:32;8.70;68.80
46926;DHT22;32667;48.248;-1.700;2023-03-01T13:37:46;9.20;68.40
46926;DHT22;32667;48.248;-1.700;2023-03-01T13:42:44;9.30;68.30
46926;DHT22;32667;48.248;-1.700;2023-03-01T13:47:43;9.40;68.20
46926;DHT22;32667;48.248;-1.700;2023-03-01T13:50:43;9.60;68.20
46926;DHT22;32667;48.248;-1.700;2023-03-01T13:53:05;9.70;68.00
46926;DHT22;32667;48.248;-1.700;2023-03-01T13:55:44;10.00;68.00
46926;DHT22;32667;48.248;-1.700;2023-03-01T14:03:31;10.20;67.50
46926;DHT22;32667;48.248;-1.700;2023-03-01T14:08:45;10.30;67.60
46926;DHT22;32667;48.248;-1.700;2023-03-01T14:21:20;10.20;68.20
46926;DHT22;32667;48.248;-1.700;2023-03-01T14:23:47;10.20;68.30
46926;DHT22;32667;48.248;-1.700;2023-03-01T14:26:13;10.30;68.30
46926;DHT22;32667;48.248;-1.700;2023-03-01T14:28:47;10.40;68.30
46926;DHT22;32667;48.248;-1.700;2023-03-01T14:34:00;10.50;68.30
46926;DHT22;32667;48.248;-1.700;2023-03-01T14:36:27;10.50;68.20
46926;DHT22;32667;48.248;-1.700;2023-03-01T14:38:55;10.50;68.30
46926;DHT22;32667;48.248;-1.700;2023-03-01T14:41:31;10.50;68.20
46926;DHT22;32667;48.248;-1.700;2023-03-01T14:46:36;10.40;68.40
46926;DHT22;32667;48.248;-1.700;2023-03-01T14:49:05;10.30;68.60
46926;DHT22;32667;48.248;-1.700;2023-03-01T14:51:49;10.30;68.60
46926;DHT22;32667;48.248;-1.700;2023-03-01T14:57:01;10.20;69.00
46926;DHT22;32667;48.248;-1.700;2023-03-01T14:59:27;10.30;68.80
46926;DHT22;32667;48.248;-1.700;2023-03-01T15:01:56;10.30;68.80
46926;DHT22;32667;48.248;-1.700;2023-03-01T15:04:25;10.30;68.70
46926;DHT22;32667;48.248;-1.700;2023-03-01T15:06:55;10.40;68.80
46926;DHT22;32667;48.248;-1.700;2023-03-01T15:09:32;10.50;68.70
46926;DHT22;32667;48.248;-1.700;2023-03-01T15:11:59;10.50;68.60
46926;DHT22;32667;48.248;-1.700;2023-03-01T15:14:43;10.50;68.40
46926;DHT22;32667;48.248;-1.700;2023-03-01T15:20:02;10.40;68.60
46926;DHT22;32667;48.248;-1.700;2023-03-01T15:22:29;10.50;68.70
46926;DHT22;32667;48.248;-1.700;2023-03-01T15:24:55;10.50;68.80
46926;DHT22;32667;48.248;-1.700;2023-03-01T15:27:24;10.60;68.80
46926;DHT22;32667;48.248;-1.700;2023-03-01T15:29:54;10.70;68.60
46926;DHT22;32667;48.248;-1.700;2023-03-01T15:37:59;10.70;68.50
46926;DHT22;32667;48.248;-1.700;2023-03-01T15:42:59;10.40;68.90
46926;DHT22;32667;48.248;-1.700;2023-03-01T15:45:28;10.30;69.10
46926;DHT22;32667;48.248;-1.700;2023-03-01T15:50:30;10.10;69.20
46926;DHT22;32667;48.248;-1.700;2023-03-01T15:52:57;10.10;69.40
46926;DHT22;32667;48.248;-1.700;2023-03-01T15:55:30;10.00;69.50
46926;DHT22;32667;48.248;-1.700;2023-03-01T16:00:33;9.90;69.70
46926;DHT22;32667;48.248;-1.700;2023-03-01T16:05:47;10.00;69.50
46926;DHT22;32667;48.248;-1.700;2023-03-01T16:08:15;9.90;69.50
46926;DHT22;32667;48.248;-1.700;2023-03-01T16:10:44;9.80;69.50
46926;DHT22;32667;48.248;-1.700;2023-03-01T16:13:10;9.80;69.60
46926;DHT22;32667;48.248;-1.700;2023-03-01T16:15:36;9.80;69.70
46926;DHT22;32667;48.248;-1.700;2023-03-01T16:18:05;9.70;69.80
46926;DHT22;32667;48.248;-1.700;2023-03-01T16:20:33;9.60;69.80
46926;DHT22;32667;48.248;-1.700;2023-03-01T16:22:59;9.50;69.90
46926;DHT22;32667;48.248;-1.700;2023-03-01T16:25:28;9.40;70.00
46926;DHT22;32667;48.248;-1.700;2023-03-01T16:27:56;9.30;70.20
46926;DHT22;32667;48.248;-1.700;2023-03-01T16:30:23;9.20;70.30
46926;DHT22;32667;48.248;-1.700;2023-03-01T16:32:52;9.10;70.40
46926;DHT22;32667;48.248;-1.700;2023-03-01T16:35:20;9.00;70.60
46926;DHT22;32667;48.248;-1.700;2023-03-01T16:37:46;9.00;70.70
46926;DHT22;32667;48.248;-1.700;2023-03-01T16:40:16;8.90;70.60
46926;DHT22;32667;48.248;-1.700;2023-03-01T16:42:42;8.90;70.60
46926;DHT22;32667;48.248;-1.700;2023-03-01T16:45:08;8.90;70.60
46926;DHT22;32667;48.248;-1.700;2023-03-01T16:47:36;8.90;70.60
46926;DHT22;32667;48.248;-1.700;2023-03-01T16:50:09;8.90;70.60
46926;DHT22;32667;48.248;-1.700;2023-03-01T16:52:35;8.90;70.60
46926;DHT22;32667;48.248;-1.700;2023-03-01T16:55:09;8.80;71.10
46926;DHT22;32667;48.248;-1.700;2023-03-01T16:57:37;8.70;70.50
46926;DHT22;32667;48.248;-1.700;2023-03-01T17:00:07;8.60;70.60
46926;DHT22;32667;48.248;-1.700;2023-03-01T17:02:34;8.60;70.80
46926;DHT22;32667;48.248;-1.700;2023-03-01T17:05:00;8.50;70.80
46926;DHT22;32667;48.248;-1.700;2023-03-01T17:07:26;8.40;70.90
46926;DHT22;32667;48.248;-1.700;2023-03-01T17:09:51;8.30;70.90
46926;DHT22;32667;48.248;-1.700;2023-03-01T17:12:17;8.30;71.00
46926;DHT22;32667;48.248;-1.700;2023-03-01T17:14:42;8.20;71.10
46926;DHT22;32667;48.248;-1.700;2023-03-01T17:17:26;8.20;71.10
46926;DHT22;32667;48.248;-1.700;2023-03-01T17:19:51;8.10;71.10
46926;DHT22;32667;48.248;-1.700;2023-03-01T17:22:19;8.10;71.10
46926;DHT22;32667;48.248;-1.700;2023-03-01T17:25:03;8.10;71.20
46926;DHT22;32667;48.248;-1.700;2023-03-01T17:27:31;8.00;71.20
46926;DHT22;32667;48.248;-1.700;2023-03-01T17:29:59;8.00;71.20
46926;DHT22;32667;48.248;-1.700;2023-03-01T17:32:25;7.90;71.20
46926;DHT22;32667;48.248;-1.700;2023-03-01T17:34:53;7.90;71.10
46926;DHT22;32667;48.248;-1.700;2023-03-01T17:37:19;7.80;71.20
46926;DHT22;32667;48.248;-1.700;2023-03-01T17:39:47;7.70;71.90
46926;DHT22;32667;48.248;-1.700;2023-03-01T17:42:17;7.60;71.40
46926;DHT22;32667;48.248;-1.700;2023-03-01T17:44:45;7.50;71.40
46926;DHT22;32667;48.248;-1.700;2023-03-01T17:47:11;7.50;71.40
46926;DHT22;32667;48.248;-1.700;2023-03-01T17:49:39;7.40;71.40
46926;DHT22;32667;48.248;-1.700;2023-03-01T17:52:05;7.40;71.50
46926;DHT22;32667;48.248;-1.700;2023-03-01T17:54:33;7.30;71.50
46926;DHT22;32667;48.248;-1.700;2023-03-01T17:57:01;7.30;71.50
46926;DHT22;32667;48.248;-1.700;2023-03-01T17:59:29;7.20;71.50
46926;DHT22;32667;48.248;-1.700;2023-03-01T18:02:05;7.20;71.60
46926;DHT22;32667;48.248;-1.700;2023-03-01T18:04:31;7.20;71.60
46926;DHT22;32667;48.248;-1.700;2023-03-01T18:06:57;7.20;71.60
46926;DHT22;32667;48.248;-1.700;2023-03-01T18:09:25;7.10;71.60
46926;DHT22;32667;48.248;-1.700;2023-03-01T18:11:52;7.10;71.50